Time;durP1;ratioP1;P1;durP2;ratioP2;P2;SDS_P1;SDS_P2;PMS_P1;PMS_P2;Temp;Humidity;BMP_temperature;BMP_pressure;BME280_temperature;BME280_humidity;BME280_pressure;Samples;Min_cycle;Max_cycle;Signal;HPM_P1;HPM_P2
2023/01/05 00:01:31;;;;;;;27.27;14.67;;;;;;;6.98;100.00;95263.81;5072511;28;20677;-54
2023/01/05 00:03:57;;;;;;;23.97;13.80;;;;;;;7.01;100.00;95258.56;5072314;28;20208;-53
2023/01/05 00:06:22;;;;;;;24.50;14.13;;;;;;;7.04;100.00;95269.31;5071627;28;20638;-56
2023/01/05 00:08:48;;;;;;;23.60;13.73;;;;;;;7.08;100.00;95274.97;5072480;28;20641;-58
2023/01/05 00:22:37;;;;;;;22.73;13.93;;;;;;;6.83;100.00;95247.06;5072293;28;20253;-53
2023/01/05 00:25:02;;;;;;;29.37;15.00;;;;;;;7.06;100.00;95261.63;5071899;28;20216;-55
2023/01/05 00:27:29;;;;;;;22.57;13.43;;;;;;;7.07;100.00;95248.88;5071818;28;20242;-56
2023/01/05 00:29:55;;;;;;;25.47;14.00;;;;;;;6.96;100.00;95246.22;5053877;28;20216;-56
2023/01/05 00:32:20;;;;;;;24.57;13.43;;;;;;;6.90;100.00;95251.66;5072141;28;20276;-54
2023/01/05 00:34:46;;;;;;;25.53;14.70;;;;;;;6.96;100.00;95250.44;5054053;28;20265;-56
2023/01/05 00:37:12;;;;;;;23.20;12.50;;;;;;;7.01;100.00;95253.53;5054045;28;20193;-55
2023/01/05 00:39:37;;;;;;;23.60;13.87;;;;;;;7.17;100.00;95262.56;5071778;28;20213;-56
2023/01/05 00:42:03;;;;;;;26.30;13.90;;;;;;;7.10;100.00;95245.34;5071758;28;20675;-57
2023/01/05 00:44:29;;;;;;;24.70;13.07;;;;;;;6.97;100.00;95234.41;5071621;28;20228;-53
2023/01/05 00:46:54;;;;;;;29.27;14.03;;;;;;;7.11;100.00;95249.53;5071670;28;20637;-55
2023/01/05 00:49:19;;;;;;;23.03;13.60;;;;;;;7.18;100.00;95254.09;5071608;28;20235;-55
2023/01/05 00:51:45;;;;;;;25.30;13.93;;;;;;;7.34;100.00;95259.00;5071593;28;20192;-56
2023/01/05 00:54:11;;;;;;;21.03;12.93;;;;;;;7.34;100.00;95257.31;5071820;28;20193;-54
2023/01/05 00:56:36;;;;;;;20.93;13.63;;;;;;;7.40;100.00;95261.16;5071670;28;20195;-54
2023/01/05 00:59:02;;;;;;;23.40;13.27;;;;;;;7.56;100.00;95271.94;5071667;28;20690;-58
2023/01/05 01:01:27;;;;;;;22.57;12.97;;;;;;;7.76;100.00;95280.81;5071480;28;20189;-57
2023/01/05 01:03:54;;;;;;;21.43;13.17;;;;;;;7.70;100.00;95263.47;5071607;28;20196;-57
2023/01/05 01:06:19;;;;;;;22.60;12.57;;;;;;;7.61;100.00;95265.66;5071363;28;20212;-55
2023/01/05 01:08:45;;;;;;;18.67;12.90;;;;;;;7.66;100.00;95262.84;5071201;28;20279;-60
2023/01/05 01:11:10;;;;;;;25.07;13.40;;;;;;;7.45;100.00;95249.84;5071299;28;20217;-54
2023/01/05 01:13:37;;;;;;;25.47;13.57;;;;;;;7.24;100.00;95235.19;5071622;28;20192;-53
2023/01/05 01:16:08;;;;;;;24.00;12.57;;;;;;;7.33;100.00;95242.22;5071076;28;20278;-54
2023/01/05 01:18:33;;;;;;;25.80;13.67;;;;;;;7.49;100.00;95255.53;5071160;28;20224;-56
2023/01/05 01:20:59;;;;;;;23.73;12.77;;;;;;;7.62;100.00;95253.84;5070903;28;20251;-56
2023/01/05 01:23:24;;;;;;;21.63;13.13;;;;;;;7.72;100.00;95261.66;5071428;28;20631;-56
2023/01/05 01:25:50;;;;;;;19.83;11.67;;;;;;;7.65;100.00;95254.44;5070935;28;20240;-55
2023/01/05 01:28:15;;;;;;;22.00;13.47;;;;;;;7.60;100.00;95237.94;5070945;28;20213;-57
2023/01/05 01:30:40;;;;;;;22.10;12.57;;;;;;;7.76;100.00;95247.91;5070971;28;20704;-59
2023/01/05 01:33:06;;;;;;;22.20;13.10;;;;;;;7.81;100.00;95246.72;5071358;28;20232;-57
2023/01/05 01:35:31;;;;;;;22.83;12.47;;;;;;;7.94;100.00;95265.22;5071005;28;20205;-54
2023/01/05 01:37:57;;;;;;;19.77;12.17;;;;;;;7.92;100.00;95246.03;5070828;28;20195;-56
2023/01/05 01:40:22;;;;;;;19.67;11.63;;;;;;;7.90;100.00;95246.09;5070803;28;20215;-54
2023/01/05 01:42:47;;;;;;;18.20;11.83;;;;;;;7.91;100.00;95245.19;5071152;28;20193;-53
2023/01/05 01:45:23;;;;;;;19.77;12.40;;;;;;;8.07;100.00;95250.88;5070811;28;20201;-54
2023/01/05 01:47:57;;;;;;;20.47;12.33;;;;;;;8.03;100.00;95230.94;5071303;28;20265;-57
2023/01/05 01:50:52;;;;;;;20.63;11.57;;;;;;;8.10;100.00;95248.13;5070892;28;20204;-53
2023/01/05 01:53:24;;;;;;;19.10;11.43;;;;;;;8.06;100.00;95226.47;5050696;28;20247;-57
2023/01/05 01:55:51;;;;;;;21.30;12.77;;;;;;;8.11;100.00;95228.69;5052736;28;20212;-58
2023/01/05 01:58:18;;;;;;;21.53;12.57;;;;;;;8.13;100.00;95230.22;5071153;28;20189;-55
2023/01/05 02:00:45;;;;;;;20.03;11.53;;;;;;;8.44;100.00;95264.50;5070646;28;20315;-53
2023/01/05 02:03:11;;;;;;;20.07;12.00;;;;;;;8.34;100.00;95246.56;5070893;28;20204;-57
2023/01/05 02:05:36;;;;;;;21.50;12.87;;;;;;;8.14;100.00;95219.19;5070483;28;20261;-57
2023/01/05 02:08:03;;;;;;;18.20;11.23;;;;;;;7.95;100.00;95182.53;5070700;28;20193;-57
2023/01/05 02:10:46;;;;;;;21.77;12.67;;;;;;;8.09;100.00;95205.19;5052994;28;20686;-56
2023/01/05 02:13:35;;;;;;;22.50;13.93;;;;;;;8.18;100.00;95202.06;5070539;28;20193;-55
2023/01/05 02:16:04;;;;;;;25.50;14.07;;;;;;;8.04;100.00;95180.19;5070352;28;20291;-57
2023/01/05 02:19:01;;;;;;;27.00;14.80;;;;;;;7.93;100.00;95159.84;5070280;28;20224;-53
2023/01/05 02:21:33;;;;;;;28.53;15.37;;;;;;;7.79;100.00;95147.28;5070571;28;20184;-54
2023/01/05 02:24:21;;;;;;;25.80;15.00;;;;;;;7.90;100.00;95154.97;5070820;28;20212;-55
2023/01/05 02:27:23;;;;;;;24.87;15.47;;;;;;;7.71;100.00;95141.94;5069427;28;20269;-54
2023/01/05 02:30:06;;;;;;;30.17;15.63;;;;;;;7.63;100.00;95131.50;5071547;28;20224;-54
2023/01/05 02:32:55;;;;;;;29.67;15.33;;;;;;;7.67;100.00;95132.09;5073937;28;20193;-54
2023/01/05 02:35:32;;;;;;;28.10;15.83;;;;;;;7.87;100.00;95147.59;5074119;28;20215;-55
2023/01/05 02:38:12;;;;;;;27.43;15.80;;;;;;;7.95;100.00;95168.16;5073784;28;20272;-57
2023/01/05 02:40:46;;;;;;;28.77;16.07;;;;;;;7.85;100.00;95156.19;5073707;28;20204;-57
2023/01/05 02:43:13;;;;;;;26.03;16.10;;;;;;;7.79;100.00;95149.00;5074058;28;20193;-57
2023/01/05 02:45:39;;;;;;;27.57;16.10;;;;;;;7.90;100.00;95149.13;5073430;28;20216;-56
2023/01/05 02:48:04;;;;;;;24.13;14.97;;;;;;;7.92;100.00;95145.56;5073712;28;20193;-57
2023/01/05 02:50:43;;;;;;;28.60;16.37;;;;;;;7.87;100.00;95150.13;5073380;28;20216;-57
2023/01/05 02:53:25;;;;;;;29.33;16.87;;;;;;;7.89;100.00;95148.31;5073515;28;20204;-57
2023/01/05 02:55:53;;;;;;;26.90;15.10;;;;;;;7.89;100.00;95143.25;5073483;28;20215;-58
2023/01/05 02:58:45;;;;;;;36.73;16.40;;;;;;;7.97;100.00;95145.25;5073425;28;20573;-56
2023/01/05 03:01:23;;;;;;;28.17;16.40;;;;;;;8.09;100.00;95159.63;5060355;28;20224;-53
2023/01/05 03:04:05;;;;;;;27.33;15.67;;;;;;;8.07;100.00;95149.63;5073343;28;20201;-56
2023/01/05 03:06:47;;;;;;;31.17;16.57;;;;;;;8.27;100.00;95171.91;5073249;28;20176;-55
2023/01/05 03:09:18;;;;;;;31.10;16.33;;;;;;;8.07;100.00;95147.09;5073354;28;20216;-54
2023/01/05 03:14:36;;;;;;;28.73;15.93;;;;;;;7.99;100.00;95124.00;5073219;28;20219;-58
2023/01/05 03:17:07;;;;;;;27.47;15.40;;;;;;;7.89;100.00;95115.41;5073197;28;20280;-59
2023/01/05 03:19:35;;;;;;;26.53;15.50;;;;;;;8.10;100.00;95135.94;5055165;28;20243;-56
2023/01/05 03:36:22;;;;;;;30.87;15.30;;;;;;;7.71;100.00;95072.78;5072946;28;20303;-58
2023/01/05 03:38:51;;;;;;;28.90;15.47;;;;;;;7.62;100.00;95059.03;5072876;28;20204;-54
2023/01/05 03:41:22;;;;;;;27.83;14.83;;;;;;;7.80;100.00;95083.09;5071635;28;20209;-57
2023/01/05 03:43:48;;;;;;;26.83;14.87;;;;;;;7.86;100.00;95079.38;5072985;28;20779;-54
2023/01/05 03:46:18;;;;;;;32.20;16.80;;;;;;;7.58;100.00;95038.19;5072573;28;20213;-53
2023/01/05 03:48:43;;;;;;;25.60;15.50;;;;;;;7.73;100.00;95064.19;5072319;28;20612;-55
2023/01/05 03:51:09;;;;;;;29.03;16.90;;;;;;;7.77;100.00;95077.44;5072562;28;20215;-56
2023/01/05 03:53:34;;;;;;;26.73;14.97;;;;;;;7.75;100.00;95061.56;5072936;28;20196;-54
2023/01/05 03:56:00;;;;;;;27.00;15.87;;;;;;;7.85;100.00;95087.88;5072451;28;20693;-56
2023/01/05 03:58:25;;;;;;;24.63;14.70;;;;;;;7.70;100.00;95066.91;5072784;28;20224;-53
2023/01/05 04:00:51;;;;;;;23.67;14.47;;;;;;;7.80;100.00;95088.16;5072490;28;20584;-54
2023/01/05 04:03:17;;;;;;;27.07;14.97;;;;;;;7.93;100.00;95093.22;5072723;28;20193;-53
2023/01/05 04:05:43;;;;;;;27.03;15.13;;;;;;;7.89;100.00;95090.09;5072227;28;20208;-53
2023/01/05 04:08:15;;;;;;;27.97;15.57;;;;;;;7.87;100.00;95093.63;5072334;28;20262;-53
2023/01/05 04:10:41;;;;;;;27.27;15.77;;;;;;;7.85;100.00;95081.09;5072194;28;20223;-55
2023/01/05 04:13:06;;;;;;;29.30;16.17;;;;;;;8.02;100.00;95097.69;5072833;28;20578;-53
2023/01/05 04:15:32;;;;;;;29.37;16.90;;;;;;;7.98;100.00;95101.31;5072356;28;20201;-56
2023/01/05 04:17:57;;;;;;;26.80;15.70;;;;;;;7.91;100.00;95079.84;5072600;28;20177;-57
2023/01/05 04:20:22;;;;;;;30.20;16.73;;;;;;;7.92;100.00;95079.75;5072256;28;20224;-54
2023/01/05 04:22:48;;;;;;;27.97;16.30;;;;;;;8.06;100.00;95087.22;5072495;28;20238;-54
2023/01/05 04:25:13;;;;;;;29.90;16.50;;;;;;;8.08;100.00;95077.78;5072037;28;20613;-54
2023/01/05 04:27:39;;;;;;;30.23;16.37;;;;;;;8.05;100.00;95072.13;5072048;28;20651;-53
2023/01/05 04:30:05;;;;;;;32.57;16.47;;;;;;;7.93;100.00;95062.84;5071904;28;20639;-53
2023/01/05 04:32:30;;;;;;;30.83;16.13;;;;;;;7.84;100.00;95049.09;5071770;28;20249;-52
2023/01/05 04:34:55;;;;;;;25.47;16.50;;;;;;;7.79;100.00;95043.53;5071926;28;20697;-56
2023/01/05 04:37:22;;;;;;;27.60;15.90;;;;;;;7.82;100.00;95050.13;5071987;28;20601;-53
2023/01/05 04:39:47;;;;;;;28.37;16.63;;;;;;;7.85;100.00;95060.03;5071685;28;20200;-54
2023/01/05 04:42:12;;;;;;;28.90;16.47;;;;;;;7.89;100.00;95066.50;5072007;28;20189;-54
2023/01/05 04:44:38;;;;;;;27.17;15.83;;;;;;;7.82;100.00;95075.44;5071914;28;20211;-55
2023/01/05 04:47:03;;;;;;;30.27;15.57;;;;;;;7.80;100.00;95062.84;5071643;28;20315;-57
2023/01/05 04:49:36;;;;;;;33.37;18.00;;;;;;;7.71;100.00;95050.03;5071758;28;20620;-54
2023/01/05 04:52:01;;;;;;;29.17;16.67;;;;;;;7.70;100.00;95061.03;5071286;28;20189;-54
2023/01/05 04:54:26;;;;;;;26.67;15.87;;;;;;;7.63;100.00;95043.75;5071756;28;20335;-53
2023/01/05 04:56:52;;;;;;;24.47;14.97;;;;;;;7.76;100.00;95071.56;5071691;28;20185;-54
2023/01/05 04:59:17;;;;;;;25.23;14.67;;;;;;;7.77;100.00;95090.09;5071436;28;20205;-54
2023/01/05 05:01:43;;;;;;;27.73;16.00;;;;;;;7.87;100.00;95101.22;5071444;28;20177;-54
2023/01/05 05:04:08;;;;;;;26.43;15.67;;;;;;;7.59;100.00;95059.25;5071659;28;20302;-56
2023/01/05 05:06:34;;;;;;;28.07;16.00;;;;;;;7.68;100.00;95078.88;5071365;28;20176;-55
2023/01/05 05:08:59;;;;;;;26.67;15.17;;;;;;;7.69;100.00;95072.09;5071338;28;20209;-53
2023/01/05 05:11:25;;;;;;;26.73;14.77;;;;;;;7.72;100.00;95082.00;5053403;28;20279;-54
2023/01/05 05:13:50;;;;;;;24.17;14.17;;;;;;;7.64;100.00;95069.84;5071358;28;20731;-53
2023/01/05 05:16:15;;;;;;;25.03;13.97;;;;;;;7.63;100.00;95068.25;5071153;28;20200;-54
2023/01/05 05:18:41;;;;;;;21.70;13.83;;;;;;;7.64;100.00;95074.91;5053561;28;20271;-56
2023/01/05 05:21:06;;;;;;;25.93;14.90;;;;;;;7.60;100.00;95070.97;5071247;28;20258;-57
2023/01/05 05:23:32;;;;;;;25.47;15.20;;;;;;;7.60;100.00;95065.91;5071356;28;20658;-58
2023/01/05 05:25:57;;;;;;;24.67;14.10;;;;;;;7.76;100.00;95089.28;5071080;28;20555;-58
2023/01/05 05:28:26;;;;;;;23.53;14.37;;;;;;;7.76;100.00;95089.28;5070765;28;20215;-57
2023/01/05 05:30:55;;;;;;;24.63;13.77;;;;;;;7.84;100.00;95087.03;5070976;28;20212;-57
2023/01/05 05:33:21;;;;;;;24.77;13.77;;;;;;;7.75;100.00;95084.31;5071269;28;20203;-59
2023/01/05 05:35:47;;;;;;;22.43;12.87;;;;;;;7.64;100.00;95077.44;5071127;28;20270;-54
2023/01/05 05:38:12;;;;;;;26.60;13.53;;;;;;;7.57;100.00;95063.59;5070972;28;20269;-54
2023/01/05 05:40:38;;;;;;;26.00;13.47;;;;;;;7.56;100.00;95059.44;5070878;28;20644;-56
2023/01/05 05:43:03;;;;;;;22.37;13.50;;;;;;;7.62;100.00;95054.78;5071138;28;20538;-57
2023/01/05 05:45:29;;;;;;;22.90;13.07;;;;;;;7.79;100.00;95089.09;5070859;28;20218;-53
2023/01/05 05:47:54;;;;;;;23.60;14.00;;;;;;;7.75;100.00;95090.22;5071224;28;20188;-56
2023/01/05 05:50:20;;;;;;;22.50;13.63;;;;;;;7.51;100.00;95057.19;5070798;28;20624;-58
2023/01/05 05:52:45;;;;;;;25.70;13.80;;;;;;;7.57;100.00;95056.00;5070857;28;20663;-57
2023/01/05 05:55:11;;;;;;;27.17;14.40;;;;;;;7.55;100.00;95052.78;5070642;28;20208;-56
2023/01/05 05:57:36;;;;;;;23.07;12.97;;;;;;;7.35;100.00;95021.19;5070671;28;20193;-57
2023/01/05 06:00:03;;;;;;;25.13;13.77;;;;;;;7.61;100.00;95032.91;5070535;28;20653;-57
2023/01/05 06:02:28;;;;;;;27.67;14.37;;;;;;;7.63;100.00;95045.47;5070717;28;20275;-57
2023/01/05 06:04:54;;;;;;;26.97;14.17;;;;;;;7.71;100.00;95055.09;5054644;28;20224;-56
2023/01/05 06:07:19;;;;;;;24.90;14.13;;;;;;;7.45;100.00;95039.91;5074232;28;20192;-56
2023/01/05 06:09:44;;;;;;;25.53;14.80;;;;;;;7.29;100.00;95008.19;5073975;28;20243;-57
2023/01/05 06:12:10;;;;;;;25.17;14.47;;;;;;;7.47;100.00;95027.97;5074205;28;20189;-54
2023/01/05 06:14:35;;;;;;;25.63;15.67;;;;;;;7.46;100.00;95023.03;5074028;28;20212;-54
2023/01/05 06:17:01;;;;;;;34.30;17.17;;;;;;;7.43;100.00;95008.06;5073910;28;20200;-53
2023/01/05 06:19:27;;;;;;;33.67;17.80;;;;;;;7.36;100.00;94981.56;5073762;28;20204;-54
2023/01/05 06:21:52;;;;;;;28.93;16.67;;;;;;;7.33;100.00;94989.34;5073752;28;20200;-54
2023/01/05 06:24:18;;;;;;;29.90;18.10;;;;;;;7.34;100.00;94993.50;5073559;28;20216;-53
2023/01/05 06:26:44;;;;;;;33.17;19.17;;;;;;;7.58;100.00;95009.56;5073984;28;20704;-54
2023/01/05 06:29:10;;;;;;;30.63;18.03;;;;;;;7.41;100.00;94997.25;5074085;28;20225;-56
2023/01/05 06:31:36;;;;;;;33.30;17.73;;;;;;;7.30;100.00;94981.97;5073764;28;20200;-57
2023/01/05 06:34:01;;;;;;;38.77;18.83;;;;;;;7.21;100.00;94965.69;5074235;28;20199;-58
2023/01/05 06:36:27;;;;;;;30.53;17.67;;;;;;;7.11;100.00;94956.31;5073927;28;20177;-53
2023/01/05 06:38:52;;;;;;;31.33;17.27;;;;;;;7.15;100.00;94960.25;5074109;28;20220;-58
2023/01/05 06:41:17;;;;;;;31.03;17.47;;;;;;;7.19;100.00;94971.78;5073748;28;20209;-56
2023/01/05 06:43:43;;;;;;;31.77;17.17;;;;;;;7.30;100.00;94981.97;5073862;28;20189;-56
2023/01/05 06:46:08;;;;;;;31.57;17.50;;;;;;;7.41;100.00;94974.47;5073599;28;20691;-60
2023/01/05 06:48:33;;;;;;;28.97;17.33;;;;;;;7.54;100.00;94992.97;5074106;28;20250;-56
2023/01/05 06:50:59;;;;;;;30.77;18.20;;;;;;;7.60;100.00;94995.06;5073512;28;20200;-55
2023/01/05 06:53:24;;;;;;;33.37;17.97;;;;;;;7.18;100.00;94960.03;5073913;28;20242;-54
2023/01/05 06:55:50;;;;;;;31.80;18.10;;;;;;;7.32;100.00;94977.59;5073481;28;20219;-53
2023/01/05 06:58:15;;;;;;;33.47;19.70;;;;;;;7.60;100.00;94995.06;5073957;28;20185;-55
2023/01/05 07:00:41;;;;;;;30.63;17.13;;;;;;;7.74;100.00;94994.94;5073301;28;20208;-56
2023/01/05 07:03:06;;;;;;;31.20;16.07;;;;;;;7.97;100.00;95014.44;5073439;28;20729;-59
2023/01/05 07:05:32;;;;;;;31.53;17.53;;;;;;;8.19;100.00;95029.78;5073127;28;20291;-58
2023/01/05 07:07:57;;;;;;;30.80;17.63;;;;;;;8.48;100.00;95053.91;5073257;28;20189;-59
2023/01/05 07:10:23;;;;;;;37.27;17.77;;;;;;;8.53;100.00;95056.09;5073310;28;20326;-57
2023/01/05 07:12:48;;;;;;;31.00;17.70;;;;;;;8.83;100.00;94975.34;5073322;28;20534;-55
2023/01/05 07:15:13;;;;;;;34.30;18.23;;;;;;;9.74;100.00;94981.19;5072781;28;20205;-55
2023/01/05 07:17:39;;;;;;;31.70;17.37;;;;;;;10.34;100.00;94980.78;5073025;28;20189;-56
2023/01/05 07:20:06;;;;;;;29.63;16.80;;;;;;;10.64;100.00;95009.69;5072877;28;20217;-52
2023/01/05 07:22:31;;;;;;;32.43;16.37;;;;;;;11.07;100.00;95022.28;5073335;28;20311;-58
2023/01/05 07:24:57;;;;;;;30.50;15.43;;;;;;;11.42;100.00;95075.44;5055072;28;20300;-54
2023/01/05 07:27:23;;;;;;;31.17;16.67;;;;;;;11.16;100.00;95163.25;5054977;28;20196;-53
2023/01/05 07:29:48;;;;;;;31.33;17.03;;;;;;;10.67;100.00;95016.22;5072984;28;20217;-57
2023/01/05 07:32:14;;;;;;;31.17;16.17;;;;;;;10.76;100.00;95033.31;5072823;28;20720;-55
2023/01/05 07:34:39;;;;;;;28.07;16.77;;;;;;;11.17;100.00;95107.13;5072778;28;20208;-57
2023/01/05 07:37:05;;;;;;;30.87;16.20;;;;;;;11.53;100.00;95129.63;5072828;28;20185;-54
2023/01/05 07:39:30;;;;;;;30.53;17.47;;;;;;;11.40;100.00;95195.22;5072823;28;20212;-55
2023/01/05 07:41:56;;;;;;;26.93;15.73;;;;;;;10.66;100.00;95112.06;5072876;28;20674;-56
2023/01/05 07:44:21;;;;;;;30.23;15.57;;;;;;;10.49;100.00;95109.19;5072736;28;20234;-57
2023/01/05 07:46:47;;;;;;;27.10;17.37;;;;;;;10.16;100.00;95076.22;5072593;28;20181;-58
2023/01/05 07:49:12;;;;;;;30.43;16.23;;;;;;;9.90;100.00;95043.41;5072513;28;20384;-57
2023/01/05 07:51:37;;;;;;;25.73;16.53;;;;;;;9.74;100.00;95019.28;5072710;28;20192;-57
2023/01/05 07:54:03;;;;;;;31.37;16.23;;;;;;;9.61;100.00;95014.34;5054357;28;20640;-58
2023/01/05 07:56:28;;;;;;;26.10;16.20;;;;;;;9.56;100.00;95011.31;5072389;28;20185;-57
2023/01/05 07:58:54;;;;;;;26.77;15.87;;;;;;;9.46;100.00;94991.81;5072235;28;20187;-57
2023/01/05 08:01:19;;;;;;;27.30;16.70;;;;;;;9.43;100.00;95013.19;5072291;28;20578;-58
2023/01/05 08:03:45;;;;;;;28.33;15.53;;;;;;;9.25;100.00;94996.78;5072770;28;20274;-58
2023/01/05 08:06:19;;;;;;;24.07;14.73;;;;;;;9.44;100.00;95017.31;5072398;28;20275;-56
2023/01/05 08:08:45;;;;;;;26.83;16.73;;;;;;;9.46;100.00;95015.47;5072499;28;20244;-58
2023/01/05 08:11:14;;;;;;;30.77;16.10;;;;;;;9.68;100.00;95045.94;5072128;28;20561;-57
2023/01/05 08:13:58;;;;;;;29.07;18.27;;;;;;;9.64;100.00;95043.72;5072061;28;20193;-58
2023/01/05 08:16:24;;;;;;;26.17;15.87;;;;;;;9.54;100.00;95030.13;5072183;28;20586;-57
2023/01/05 08:18:50;;;;;;;27.83;15.87;;;;;;;9.53;100.00;95009.03;5071947;28;20184;-58
2023/01/05 08:21:15;;;;;;;24.37;15.43;;;;;;;9.44;100.00;95022.38;5071937;28;20246;-58
2023/01/05 08:23:41;;;;;;;27.87;16.50;;;;;;;9.32;100.00;95008.06;5072241;28;20722;-59
2023/01/05 08:26:13;;;;;;;28.67;16.67;;;;;;;9.13;100.00;94987.53;5071733;28;20212;-57
2023/01/05 08:28:39;;;;;;;32.90;17.47;;;;;;;8.86;100.00;94959.13;5071586;28;20240;-57
2023/01/05 08:31:21;;;;;;;27.80;17.13;;;;;;;9.54;100.00;95010.63;5071783;28;20204;-58
2023/01/05 08:33:47;;;;;;;28.10;16.67;;;;;;;10.08;100.00;95095.34;5071990;28;20197;-57
2023/01/05 08:36:15;;;;;;;33.97;20.10;;;;;;;10.45;100.00;95131.50;5071801;28;20230;-58
2023/01/05 08:38:47;;;;;;;30.93;19.37;;;;;;;10.90;100.00;95152.56;5071681;28;20705;-59
2023/01/05 08:41:17;;;;;;;30.93;17.97;;;;;;;10.70;100.00;95133.78;5071779;28;20200;-58
2023/01/05 08:43:47;;;;;;;29.83;17.23;;;;;;;11.03;100.00;95186.28;5072071;28;20219;-58
2023/01/05 08:46:13;;;;;;;27.93;18.47;;;;;;;11.31;100.00;95195.13;5071399;28;20228;-58
2023/01/05 08:48:38;;;;;;;30.00;17.90;;;;;;;11.62;100.00;95210.38;5071401;28;20726;-60
2023/01/05 08:51:06;;;;;;;28.17;17.27;;;;;;;11.91;100.00;95241.22;5071454;28;20228;-58
2023/01/05 08:53:34;;;;;;;30.87;17.37;;;;;;;11.99;100.00;95248.22;5071588;28;20279;-58
2023/01/05 08:56:01;;;;;;;24.63;14.97;;;;;;;12.04;100.00;95261.41;5071619;28;20220;-59
2023/01/05 08:58:27;;;;;;;28.17;16.80;;;;;;;12.11;100.00;95270.16;5071446;28;20285;-58
2023/01/05 09:00:52;;;;;;;32.57;18.03;;;;;;;12.18;100.00;95253.47;5071386;28;20201;-58
2023/01/05 09:03:19;;;;;;;28.40;15.70;;;;;;;12.44;100.00;95250.38;5071217;28;20277;-58
2023/01/05 09:05:44;;;;;;;26.27;16.43;;;;;;;12.93;100.00;95285.38;5071429;28;20690;-58
2023/01/05 09:08:10;;;;;;;24.23;16.10;;;;;;;13.26;100.00;95310.66;5071415;28;20208;-60
2023/01/05 09:10:35;;;;;;;28.33;17.67;;;;;;;12.73;100.00;95282.88;5071185;28;20208;-58
2023/01/05 09:13:00;;;;;;;23.33;15.77;;;;;;;11.93;100.00;95177.38;5071457;28;20205;-58
2023/01/05 09:15:26;;;;;;;27.87;17.37;;;;;;;12.21;100.00;95181.81;5070817;28;20804;-58
2023/01/05 09:17:51;;;;;;;23.07;15.50;;;;;;;12.41;100.00;95221.78;5070967;28;20193;-57
2023/01/05 09:20:17;;;;;;;22.40;13.87;;;;;;;12.55;100.00;95229.91;5070807;28;20242;-58
2023/01/05 09:22:43;;;;;;;25.90;14.73;;;;;;;12.47;100.00;95223.81;5070950;28;20197;-58
2023/01/05 09:25:09;;;;;;;28.90;17.37;;;;;;;12.25;100.00;95161.06;5071135;28;20233;-58
2023/01/05 09:27:35;;;;;;;26.63;15.67;;;;;;;13.03;100.00;95219.06;5071047;28;20212;-59
2023/01/05 09:30:01;;;;;;;25.23;15.73;;;;;;;12.94;99.22;95233.41;5070797;28;20227;-58
2023/01/05 09:32:27;;;;;;;23.73;13.53;;;;;;;12.77;99.06;95230.66;5071131;28;20200;-58
2023/01/05 09:34:52;;;;;;;23.97;15.13;;;;;;;13.11;97.92;95247.34;5070915;28;20573;-58
2023/01/05 09:37:18;;;;;;;25.33;15.33;;;;;;;13.36;97.39;95240.00;5071025;28;20192;-58
2023/01/05 09:39:43;;;;;;;24.30;13.90;;;;;;;13.22;96.21;95257.44;5069476;28;20212;-58
2023/01/05 09:42:16;;;;;;;24.50;14.30;;;;;;;13.35;97.08;95237.56;5070962;28;20218;-59
2023/01/05 09:44:51;;;;;;;21.93;12.70;;;;;;;13.60;95.87;95256.66;5070698;28;20273;-59
2023/01/05 09:47:31;;;;;;;23.47;13.40;;;;;;;13.70;94.49;95247.25;5070747;28;20192;-58
2023/01/05 09:49:58;;;;;;;26.23;14.40;;;;;;;14.07;80.91;95253.31;5070524;28;20211;-54
2023/01/05 09:52:24;;;;;;;25.37;15.20;;;;;;;13.57;81.12;95208.41;5070714;28;20192;-59
2023/01/05 09:54:50;;;;;;;23.60;15.80;;;;;;;13.58;80.76;95204.91;5070831;28;20598;-57
2023/01/05 09:57:26;;;;;;;22.20;15.13;;;;;;;13.67;78.16;95178.56;5070715;28;20275;-55
2023/01/05 09:59:55;;;;;;;26.90;16.03;;;;;;;13.62;78.18;95167.94;5070747;28;20237;-54
2023/01/05 10:02:33;;;;;;;22.60;15.07;;;;;;;13.93;76.34;95203.44;5070570;28;20218;-58
2023/01/05 10:05:01;;;;;;;23.43;15.90;;;;;;;14.21;74.37;95232.44;5070524;28;20239;-58
2023/01/05 10:07:48;;;;;;;25.07;15.80;;;;;;;14.19;74.59;95211.31;5070339;28;20263;-58
2023/01/05 10:10:32;;;;;;;26.60;16.15;;;;;;;14.56;73.16;95250.56;5052344;28;20212;-56
2023/01/05 10:13:04;;;;;;;26.02;16.67;;;;;;;14.72;70.84;95263.59;5070772;28;20212;-58
2023/01/05 10:15:34;;;;;;;25.47;16.20;;;;;;;14.69;70.11;95263.84;5070479;28;20204;-54
2023/01/05 10:18:07;;;;;;;24.40;15.73;;;;;;;14.82;69.83;95271.22;5070663;28;20208;-55
2023/01/05 10:21:10;;;;;;;24.03;15.17;;;;;;;14.53;70.85;95232.94;5052499;28;20205;-55
2023/01/05 10:24:05;;;;;;;25.92;15.55;;;;;;;14.71;70.45;95222.75;5070544;28;20733;-58
2023/01/05 10:26:43;;;;;;;23.85;15.45;;;;;;;15.02;70.31;95240.28;5070379;28;20265;-56
2023/01/05 10:29:17;;;;;;;24.13;16.03;;;;;;;15.18;68.21;95277.25;5070344;28;20599;-56
2023/01/05 10:31:57;;;;;;;31.58;16.30;;;;;;;14.70;68.80;95227.09;5070286;28;20173;-55
2023/01/05 10:34:36;;;;;;;25.63;15.47;;;;;;;14.86;69.26;95229.84;5070296;28;20702;-56
2023/01/05 10:37:27;;;;;;;22.30;14.93;;;;;;;14.96;69.13;95211.88;5070427;28;20192;-57
2023/01/05 10:40:23;;;;;;;24.10;15.27;;;;;;;14.97;68.57;95229.66;5077205;22;20332;-58
2023/01/05 10:43:19;;;;;;;23.80;15.37;;;;;;;15.11;67.61;95220.69;5070210;28;20189;-59
2023/01/05 10:45:45;;;;;;;21.80;15.27;;;;;;;15.28;67.12;95252.41;5070050;28;20201;-53
2023/01/05 10:48:18;;;;;;;26.40;17.07;;;;;;;15.36;66.68;95245.63;5069967;28;20181;-55
2023/01/05 10:50:45;;;;;;;23.58;15.70;;;;;;;15.61;65.70;95259.53;5071728;28;20232;-56
2023/01/05 10:53:24;;;;;;;27.05;17.23;;;;;;;15.51;65.46;95259.59;5073538;28;20262;-58
2023/01/05 10:55:56;;;;;;;26.23;16.58;;;;;;;15.32;65.66;95241.72;5073653;28;20213;-58
2023/01/05 10:58:30;;;;;;;34.72;17.00;;;;;;;15.77;64.90;95252.00;5073286;28;20185;-56
2023/01/05 11:01:22;;;;;;;26.65;16.63;;;;;;;15.77;64.76;95257.13;5073361;28;20205;-59
2023/01/05 11:03:50;;;;;;;21.77;14.50;;;;;;;15.87;63.25;95284.31;5073257;28;20718;-58
2023/01/05 11:06:36;;;;;;;28.88;17.02;;;;;;;14.59;67.53;95162.47;5072994;28;20204;-55
2023/01/05 11:09:17;;;;;;;29.58;16.58;;;;;;;14.60;67.42;95158.97;5072957;28;20584;-59
2023/01/05 11:12:01;;;;;;;23.10;16.42;;;;;;;14.68;67.77;95146.28;5073398;28;20197;-55
2023/01/05 11:14:30;;;;;;;27.80;16.67;;;;;;;15.20;66.04;95195.97;5073214;28;20209;-56
2023/01/05 11:17:04;;;;;;;29.15;16.65;;;;;;;15.42;66.03;95186.13;5073094;28;20266;-58
2023/01/05 11:19:34;;;;;;;27.60;16.60;;;;;;;15.90;65.03;95213.94;5073088;28;20216;-57
2023/01/05 11:22:00;;;;;;;24.58;15.65;;;;;;;15.98;63.72;95252.47;5073015;28;20193;-58
2023/01/05 11:24:29;;;;;;;24.97;15.23;;;;;;;15.57;64.43;95206.94;5073109;28;20256;-57
2023/01/05 11:27:01;;;;;;;28.45;16.17;;;;;;;15.56;65.57;95177.13;5072979;28;20181;-59
2023/01/05 11:29:28;;;;;;;29.00;17.50;;;;;;;15.81;63.98;95228.47;5072996;28;20578;-59
2023/01/05 11:31:58;;;;;;;24.65;15.73;;;;;;;15.80;63.65;95229.41;5072840;28;20187;-59
2023/01/05 11:34:33;;;;;;;24.73;15.65;;;;;;;15.86;64.15;95205.75;5072932;28;20227;-58
2023/01/05 11:37:06;;;;;;;26.48;16.65;;;;;;;16.26;63.05;95245.50;5072982;28;20199;-60
2023/01/05 11:39:40;;;;;;;25.52;15.65;;;;;;;16.34;62.01;95246.34;5072841;28;20270;-56
2023/01/05 11:42:15;;;;;;;33.53;16.83;;;;;;;15.95;62.95;95222.81;5072853;28;20181;-57
2023/01/05 11:44:48;;;;;;;26.85;16.27;;;;;;;15.52;64.45;95163.00;5072756;28;20343;-57
2023/01/05 11:47:37;;;;;;;26.48;16.60;;;;;;;15.71;63.58;95191.06;5072734;28;20200;-55
2023/01/05 11:50:12;;;;;;;28.13;17.00;;;;;;;15.90;62.66;95216.50;5072810;28;20228;-55
2023/01/05 11:52:48;;;;;;;30.35;16.92;;;;;;;15.65;63.00;95189.88;5072612;28;20874;-55
2023/01/05 11:55:20;;;;;;;29.70;16.55;;;;;;;15.36;63.72;95165.38;5072553;28;20302;-60